sensor_id;sensor_type;location;lat;lon;timestamp;pressure;altitude;pressure_sealevel;temperature;humidity
59513;BME280;45330;51.634;5.562;2022-12-07T00:00:53;101769.63;;;2.04;100.00
59513;BME280;45330;51.634;5.562;2022-12-07T00:03:18;101766.09;;;2.02;100.00
59513;BME280;45330;51.634;5.562;2022-12-07T00:05:44;101742.13;;;1.82;100.00
59513;BME280;45330;51.634;5.562;2022-12-07T00:08:09;101766.69;;;1.96;100.00
59513;BME280;45330;51.634;5.562;2022-12-07T00:10:34;101716.59;;;1.65;100.00
59513;BME280;45330;51.634;5.562;2022-12-07T00:13:00;101766.28;;;1.87;100.00
59513;BME280;45330;51.634;5.562;2022-12-07T00:15:25;101733.06;;;1.70;100.00
59513;BME280;45330;51.634;5.562;2022-12-07T00:17:51;101738.13;;;1.69;100.00
59513;BME280;45330;51.634;5.562;2022-12-07T00:20:16;101742.44;;;1.70;100.00
59513;BME280;45330;51.634;5.562;2022-12-07T00:22:42;101756.56;;;1.80;100.00
59513;BME280;45330;51.634;5.562;2022-12-07T00:25:07;101755.63;;;1.78;100.00
59513;BME280;45330;51.634;5.562;2022-12-07T00:27:32;101749.47;;;1.74;100.00
59513;BME280;45330;51.634;5.562;2022-12-07T00:29:58;101750.63;;;1.81;100.00
59513;BME280;45330;51.634;5.562;2022-12-07T00:32:23;101754.06;;;1.81;100.00
59513;BME280;45330;51.634;5.562;2022-12-07T00:34:48;101744.47;;;1.77;100.00
59513;BME280;45330;51.634;5.562;2022-12-07T00:37:14;101718.34;;;1.66;100.00
59513;BME280;45330;51.634;5.562;2022-12-07T00:39:39;101746.09;;;1.75;100.00
59513;BME280;45330;51.634;5.562;2022-12-07T00:42:05;101746.91;;;1.74;100.00
59513;BME280;45330;51.634;5.562;2022-12-07T00:44:30;101751.97;;;1.73;100.00
59513;BME280;45330;51.634;5.562;2022-12-07T00:46:55;101746.63;;;1.68;100.00
59513;BME280;45330;51.634;5.562;2022-12-07T00:49:21;101749.19;;;1.68;100.00
59513;BME280;45330;51.634;5.562;2022-12-07T00:51:48;101749.25;;;1.69;100.00
59513;BME280;45330;51.634;5.562;2022-12-07T00:54:13;101750.00;;;1.67;100.00
59513;BME280;45330;51.634;5.562;2022-12-07T00:56:39;101750.13;;;1.70;100.00
59513;BME280;45330;51.634;5.562;2022-12-07T00:59:04;101723.06;;;1.57;100.00
59513;BME280;45330;51.634;5.562;2022-12-07T01:01:33;101715.97;;;1.51;100.00
59513;BME280;45330;51.634;5.562;2022-12-07T01:03:59;101735.16;;;1.60;100.00
59513;BME280;45330;51.634;5.562;2022-12-07T01:06:26;101740.53;;;1.66;100.00
59513;BME280;45330;51.634;5.562;2022-12-07T01:08:53;101715.97;;;1.51;100.00
59513;BME280;45330;51.634;5.562;2022-12-07T01:11:21;101741.44;;;1.66;100.00
59513;BME280;45330;51.634;5.562;2022-12-07T01:13:49;101712.53;;;1.51;100.00
59513;BME280;45330;51.634;5.562;2022-12-07T01:16:15;101742.44;;;1.70;100.00
59513;BME280;45330;51.634;5.562;2022-12-07T01:18:41;101740.53;;;1.66;100.00
59513;BME280;45330;51.634;5.562;2022-12-07T01:21:19;101739.34;;;1.58;100.00
59513;BME280;45330;51.634;5.562;2022-12-07T01:23:46;101717.28;;;1.43;100.00
59513;BME280;45330;51.634;5.562;2022-12-07T01:26:14;101727.63;;;1.45;100.00
59513;BME280;45330;51.634;5.562;2022-12-07T01:28:40;101743.72;;;1.60;100.00
59513;BME280;45330;51.634;5.562;2022-12-07T01:31:08;101745.41;;;1.60;100.00
59513;BME280;45330;51.634;5.562;2022-12-07T01:33:37;101740.94;;;1.56;100.00
59513;BME280;45330;51.634;5.562;2022-12-07T01:36:05;101744.91;;;1.49;100.00
59513;BME280;45330;51.634;5.562;2022-12-07T01:38:32;101733.59;;;1.44;100.00
59513;BME280;45330;51.634;5.562;2022-12-07T01:40:59;101745.41;;;1.60;100.00
59513;BME280;45330;51.634;5.562;2022-12-07T01:43:27;101740.34;;;1.61;100.00
59513;BME280;45330;51.634;5.562;2022-12-07T01:45:52;101707.19;;;1.46;100.00
59513;BME280;45330;51.634;5.562;2022-12-07T01:48:21;101709.06;;;1.50;100.00
59513;BME280;45330;51.634;5.562;2022-12-07T01:50:50;101735.50;;;1.67;100.00
59513;BME280;45330;51.634;5.562;2022-12-07T01:53:17;101732.78;;;1.64;100.00
59513;BME280;45330;51.634;5.562;2022-12-07T01:55:46;101739.88;;;1.70;100.00
59513;BME280;45330;51.634;5.562;2022-12-07T01:58:13;101750.13;;;1.70;100.00
59513;BME280;45330;51.634;5.562;2022-12-07T02:00:40;101744.06;;;1.68;100.00
59513;BME280;45330;51.634;5.562;2022-12-07T02:03:18;101718.41;;;1.48;100.00
59513;BME280;45330;51.634;5.562;2022-12-07T02:05:45;101706.03;;;1.40;100.00
59513;BME280;45330;51.634;5.562;2022-12-07T02:08:11;101746.22;;;1.59;100.00
59513;BME280;45330;51.634;5.562;2022-12-07T02:10:37;101712.78;;;1.37;100.00
59513;BME280;45330;51.634;5.562;2022-12-07T02:13:30;101738.84;;;1.47;100.00
59513;BME280;45330;51.634;5.562;2022-12-07T02:16:11;101735.25;;;1.43;100.00
59513;BME280;45330;51.634;5.562;2022-12-07T02:21:59;101735.84;;;1.37;100.00
59513;BME280;45330;51.634;5.562;2022-12-07T02:27:38;101738.22;;;1.33;100.00
59513;BME280;45330;51.634;5.562;2022-12-07T02:30:11;101740.63;;;1.30;100.00
59513;BME280;45330;51.634;5.562;2022-12-07T02:32:56;101744.13;;;1.32;100.00
59513;BME280;45330;51.634;5.562;2022-12-07T02:35:47;101734.72;;;1.31;100.00
59513;BME280;45330;51.634;5.562;2022-12-07T02:38:22;101713.41;;;1.14;100.00
59513;BME280;45330;51.634;5.562;2022-12-07T02:40:53;101711.78;;;1.16;100.00
59513;BME280;45330;51.634;5.562;2022-12-07T02:43:24;101730.00;;;1.22;100.00
59513;BME280;45330;51.634;5.562;2022-12-07T02:45:52;101731.44;;;1.15;100.00
59513;BME280;45330;51.634;5.562;2022-12-07T02:48:20;101704.06;;;0.96;100.00
59513;BME280;45330;51.634;5.562;2022-12-07T02:50:51;101690.88;;;0.89;100.00
59513;BME280;45330;51.634;5.562;2022-12-07T02:53:39;101724.09;;;1.05;100.00
59513;BME280;45330;51.634;5.562;2022-12-07T02:56:28;101729.03;;;1.00;100.00
59513;BME280;45330;51.634;5.562;2022-12-07T03:07:51;101737.28;;;1.31;100.00
59513;BME280;45330;51.634;5.562;2022-12-07T03:13:21;101716.22;;;1.38;100.00
59513;BME280;45330;51.634;5.562;2022-12-07T03:18:30;101740.28;;;1.60;100.00
59513;BME280;45330;51.634;5.562;2022-12-07T03:21:01;101715.69;;;1.45;100.00
59513;BME280;45330;51.634;5.562;2022-12-07T03:23:28;101740.28;;;1.60;100.00
59513;BME280;45330;51.634;5.562;2022-12-07T03:26:00;101711.38;;;1.44;100.00
59513;BME280;45330;51.634;5.562;2022-12-07T03:28:29;101733.13;;;1.52;100.00
59513;BME280;45330;51.634;5.562;2022-12-07T03:31:08;101739.03;;;1.51;100.00
59513;BME280;45330;51.634;5.562;2022-12-07T03:33:48;101712.84;;;1.39;100.00
59513;BME280;45330;51.634;5.562;2022-12-07T03:39:03;101701.47;;;1.52;100.00
59513;BME280;45330;51.634;5.562;2022-12-07T03:41:34;101724.69;;;1.75;100.00
59513;BME280;45330;51.634;5.562;2022-12-07T03:44:00;101707.41;;;1.70;100.00
59513;BME280;45330;51.634;5.562;2022-12-07T03:46:44;101710.53;;;1.83;100.00
59513;BME280;45330;51.634;5.562;2022-12-07T03:49:26;101715.97;;;1.91;100.00
59513;BME280;45330;51.634;5.562;2022-12-07T03:54:37;101719.88;;;2.02;100.00
59513;BME280;45330;51.634;5.562;2022-12-07T03:57:05;101701.66;;;1.96;100.00
59513;BME280;45330;51.634;5.562;2022-12-07T03:59:32;101701.72;;;1.97;100.00
59513;BME280;45330;51.634;5.562;2022-12-07T04:02:03;101697.44;;;1.98;100.00
59513;BME280;45330;51.634;5.562;2022-12-07T04:04:28;101708.19;;;2.09;100.00
59513;BME280;45330;51.634;5.562;2022-12-07T04:06:54;101718.72;;;2.15;100.00
59513;BME280;45330;51.634;5.562;2022-12-07T04:09:20;101714.38;;;2.14;100.00
59513;BME280;45330;51.634;5.562;2022-12-07T04:11:45;101703.66;;;2.03;100.00
59513;BME280;45330;51.634;5.562;2022-12-07T04:14:11;101723.53;;;2.07;100.00
59513;BME280;45330;51.634;5.562;2022-12-07T04:16:51;101703.69;;;1.83;100.00
59513;BME280;45330;51.634;5.562;2022-12-07T04:19:19;101716.59;;;1.85;100.00
59513;BME280;45330;51.634;5.562;2022-12-07T04:21:45;101691.06;;;1.68;100.00
59513;BME280;45330;51.634;5.562;2022-12-07T04:24:12;101692.88;;;1.71;100.00
59513;BME280;45330;51.634;5.562;2022-12-07T04:26:38;101700.78;;;1.76;100.00
59513;BME280;45330;51.634;5.562;2022-12-07T04:29:03;101697.47;;;1.78;100.00
59513;BME280;45330;51.634;5.562;2022-12-07T04:31:29;101706.38;;;1.86;100.00
59513;BME280;45330;51.634;5.562;2022-12-07T04:33:54;101721.50;;;2.00;100.00
59513;BME280;45330;51.634;5.562;2022-12-07T04:36:20;101706.56;;;1.91;100.00
59513;BME280;45330;51.634;5.562;2022-12-07T04:38:46;101722.31;;;1.99;100.00
59513;BME280;45330;51.634;5.562;2022-12-07T04:41:11;101689.03;;;1.81;100.00
59513;BME280;45330;51.634;5.562;2022-12-07T04:43:37;101719.47;;;1.93;100.00
59513;BME280;45330;51.634;5.562;2022-12-07T04:46:02;101689.63;;;1.75;100.00
59513;BME280;45330;51.634;5.562;2022-12-07T04:48:28;101689.56;;;1.74;100.00
59513;BME280;45330;51.634;5.562;2022-12-07T04:50:53;101685.06;;;1.68;100.00
59513;BME280;45330;51.634;5.562;2022-12-07T04:53:19;101709.13;;;1.71;100.00
59513;BME280;45330;51.634;5.562;2022-12-07T04:55:44;101679.78;;;1.45;100.00
59513;BME280;45330;51.634;5.562;2022-12-07T04:58:11;101707.34;;;1.49;100.00
59513;BME280;45330;51.634;5.562;2022-12-07T05:00:36;101673.69;;;1.24;100.00
59513;BME280;45330;51.634;5.562;2022-12-07T05:03:01;101706.56;;;1.32;100.00
59513;BME280;45330;51.634;5.562;2022-12-07T05:05:27;101669.69;;;1.11;100.00
59513;BME280;45330;51.634;5.562;2022-12-07T05:07:52;101672.84;;;1.05;100.00
59513;BME280;45330;51.634;5.562;2022-12-07T05:10:17;101675.47;;;1.07;100.00
59513;BME280;45330;51.634;5.562;2022-12-07T05:12:43;101692.28;;;1.19;100.00
59513;BME280;45330;51.634;5.562;2022-12-07T05:15:08;101669.47;;;1.06;100.00
59513;BME280;45330;51.634;5.562;2022-12-07T05:17:34;101671.31;;;1.09;100.00
59513;BME280;45330;51.634;5.562;2022-12-07T05:19:59;101694.06;;;1.20;100.00
59513;BME280;45330;51.634;5.562;2022-12-07T05:22:25;101700.53;;;1.32;100.00
59513;BME280;45330;51.634;5.562;2022-12-07T05:24:54;101689.06;;;1.24;100.00
59513;BME280;45330;51.634;5.562;2022-12-07T05:27:20;101701.38;;;1.31;100.00
59513;BME280;45330;51.634;5.562;2022-12-07T05:29:45;101685.19;;;1.14;100.00
59513;BME280;45330;51.634;5.562;2022-12-07T05:32:10;101688.34;;;1.08;100.00
59513;BME280;45330;51.634;5.562;2022-12-07T05:34:36;101701.75;;;1.20;100.00
59513;BME280;45330;51.634;5.562;2022-12-07T05:37:01;101677.84;;;1.02;100.00
59513;BME280;45330;51.634;5.562;2022-12-07T05:39:27;101705.09;;;1.19;100.00
59513;BME280;45330;51.634;5.562;2022-12-07T05:41:52;101688.78;;;1.17;100.00
59513;BME280;45330;51.634;5.562;2022-12-07T05:44:36;101678.41;;;1.14;100.00
59513;BME280;45330;51.634;5.562;2022-12-07T05:47:01;101697.72;;;1.26;100.00
59513;BME280;45330;51.634;5.562;2022-12-07T05:49:27;101700.28;;;1.26;100.00
59513;BME280;45330;51.634;5.562;2022-12-07T05:51:52;101693.06;;;1.17;100.00
59513;BME280;45330;51.634;5.562;2022-12-07T05:54:18;101694.44;;;1.10;100.00
59513;BME280;45330;51.634;5.562;2022-12-07T05:56:43;101689.91;;;1.05;100.00
59513;BME280;45330;51.634;5.562;2022-12-07T05:59:09;101678.44;;;0.96;100.00
59513;BME280;45330;51.634;5.562;2022-12-07T06:02:00;101685.19;;;0.94;100.00
59513;BME280;45330;51.634;5.562;2022-12-07T06:04:31;101687.63;;;0.93;100.00
59513;BME280;45330;51.634;5.562;2022-12-07T06:06:56;101679.75;;;0.88;100.00
59513;BME280;45330;51.634;5.562;2022-12-07T06:09:23;101663.38;;;0.66;100.00
59513;BME280;45330;51.634;5.562;2022-12-07T06:11:49;101686.91;;;0.77;100.00
59513;BME280;45330;51.634;5.562;2022-12-07T06:14:33;101687.59;;;0.73;100.00
59513;BME280;45330;51.634;5.562;2022-12-07T06:16:58;101640.75;;;0.40;100.00
59513;BME280;45330;51.634;5.562;2022-12-07T06:19:24;101666.28;;;0.56;100.00
59513;BME280;45330;51.634;5.562;2022-12-07T06:21:50;101669.66;;;0.55;100.00
59513;BME280;45330;51.634;5.562;2022-12-07T06:24:17;101669.34;;;0.49;100.00
59513;BME280;45330;51.634;5.562;2022-12-07T06:26:43;101695.78;;;0.66;100.00
59513;BME280;45330;51.634;5.562;2022-12-07T06:29:09;101696.16;;;0.74;100.00
59513;BME280;45330;51.634;5.562;2022-12-07T06:31:35;101678.88;;;0.70;100.00
59513;BME280;45330;51.634;5.562;2022-12-07T06:34:03;101695.13;;;0.88;100.00
59513;BME280;45330;51.634;5.562;2022-12-07T06:36:29;101703.31;;;0.99;100.00
59513;BME280;45330;51.634;5.562;2022-12-07T06:38:54;101699.00;;;0.98;100.00
59513;BME280;45330;51.634;5.562;2022-12-07T06:41:20;101678.56;;;0.81;100.00
59513;BME280;45330;51.634;5.562;2022-12-07T06:43:45;101697.09;;;0.94;100.00
59513;BME280;45330;51.634;5.562;2022-12-07T06:46:12;101705.28;;;1.05;100.00
59513;BME280;45330;51.634;5.562;2022-12-07T06:48:39;101698.91;;;1.14;100.00
59513;BME280;45330;51.634;5.562;2022-12-07T06:51:04;101697.34;;;1.18;100.00
59513;BME280;45330;51.634;5.562;2022-12-07T06:53:30;101695.38;;;1.12;100.00
59513;BME280;45330;51.634;5.562;2022-12-07T06:55:55;101700.16;;;1.05;100.00
59513;BME280;45330;51.634;5.562;2022-12-07T06:58:21;101697.41;;;1.00;100.00
59513;BME280;45330;51.634;5.562;2022-12-07T07:00:48;101696.50;;;0.99;100.00
59513;BME280;45330;51.634;5.562;2022-12-07T07:03:13;101702.66;;;1.03;100.00
59513;BME280;45330;51.634;5.562;2022-12-07T07:05:38;101703.59;;;1.05;100.00
59513;BME280;45330;51.634;5.562;2022-12-07T07:08:04;101694.31;;;1.07;100.00
59513;BME280;45330;51.634;5.562;2022-12-07T07:10:30;101705.88;;;1.17;100.00
59513;BME280;45330;51.634;5.562;2022-12-07T07:12:55;101694.19;;;1.24;100.00
59513;BME280;45330;51.634;5.562;2022-12-07T07:15:20;101699.47;;;1.27;100.00
59513;BME280;45330;51.634;5.562;2022-12-07T07:17:46;101701.66;;;1.37;100.00
59513;BME280;45330;51.634;5.562;2022-12-07T07:20:11;101704.34;;;1.40;100.00
59513;BME280;45330;51.634;5.562;2022-12-07T07:22:37;101698.28;;;1.38;100.00
59513;BME280;45330;51.634;5.562;2022-12-07T07:25:03;101705.38;;;1.44;100.00
59513;BME280;45330;51.634;5.562;2022-12-07T07:27:28;101699.28;;;1.42;100.00
59513;BME280;45330;51.634;5.562;2022-12-07T07:29:54;101696.78;;;1.43;100.00
59513;BME280;45330;51.634;5.562;2022-12-07T07:32:19;101682.47;;;1.29;100.00
59513;BME280;45330;51.634;5.562;2022-12-07T07:34:46;101698.88;;;1.32;100.00
59513;BME280;45330;51.634;5.562;2022-12-07T07:37:12;101701.81;;;1.22;100.00
59513;BME280;45330;51.634;5.562;2022-12-07T07:39:38;101713.50;;;1.15;100.00
59513;BME280;45330;51.634;5.562;2022-12-07T07:42:03;101708.19;;;1.12;100.00
59513;BME280;45330;51.634;5.562;2022-12-07T07:44:29;101714.81;;;1.07;100.00
59513;BME280;45330;51.634;5.562;2022-12-07T07:46:54;101694.41;;;0.91;100.00
59513;BME280;45330;51.634;5.562;2022-12-07T07:49:20;101710.63;;;1.09;100.00
59513;BME280;45330;51.634;5.562;2022-12-07T07:51:45;101690.50;;;0.99;100.00
59513;BME280;45330;51.634;5.562;2022-12-07T07:54:10;101705.63;;;1.12;100.00
59513;BME280;45330;51.634;5.562;2022-12-07T07:56:36;101723.44;;;1.27;100.00
59513;BME280;45330;51.634;5.562;2022-12-07T07:59:01;101718.50;;;1.32;100.00
59513;BME280;45330;51.634;5.562;2022-12-07T08:01:27;101723.09;;;1.39;100.00
59513;BME280;45330;51.634;5.562;2022-12-07T08:03:52;101713.25;;;1.48;100.00
59513;BME280;45330;51.634;5.562;2022-12-07T08:06:18;101713.59;;;1.56;100.00
59513;BME280;45330;51.634;5.562;2022-12-07T08:08:43;101701.00;;;1.61;100.00
59513;BME280;45330;51.634;5.562;2022-12-07T08:11:09;101711.56;;;1.68;100.00
59513;BME280;45330;51.634;5.562;2022-12-07T08:13:35;101718.53;;;1.71;100.00
59513;BME280;45330;51.634;5.562;2022-12-07T08:16:06;101721.78;;;1.67;100.00
59513;BME280;45330;51.634;5.562;2022-12-07T08:18:35;101706.84;;;1.58;100.00
59513;BME280;45330;51.634;5.562;2022-12-07T08:21:01;101694.50;;;1.49;100.00
59513;BME280;45330;51.634;5.562;2022-12-07T08:23:27;101711.38;;;1.64;100.00
59513;BME280;45330;51.634;5.562;2022-12-07T08:25:53;101725.31;;;1.69;100.00
59513;BME280;45330;51.634;5.562;2022-12-07T08:28:18;101692.94;;;1.53;100.00
59513;BME280;45330;51.634;5.562;2022-12-07T08:30:43;101704.09;;;1.53;100.00
59513;BME280;45330;51.634;5.562;2022-12-07T08:33:09;101697.06;;;1.49;100.00
59513;BME280;45330;51.634;5.562;2022-12-07T08:35:35;101710.22;;;1.57;100.00
59513;BME280;45330;51.634;5.562;2022-12-07T08:38:01;101728.81;;;1.71;100.00
59513;BME280;45330;51.634;5.562;2022-12-07T08:40:28;101731.25;;;1.68;100.00
59513;BME280;45330;51.634;5.562;2022-12-07T08:42:53;101706.78;;;1.57;100.00
59513;BME280;45330;51.634;5.562;2022-12-07T08:45:20;101739.81;;;1.68;100.00
59513;BME280;45330;51.634;5.562;2022-12-07T08:47:52;101738.88;;;1.66;100.00
59513;BME280;45330;51.634;5.562;2022-12-07T08:50:20;101709.22;;;1.53;100.00
59513;BME280;45330;51.634;5.562;2022-12-07T08:52:51;101733.81;;;1.68;100.00
59513;BME280;45330;51.634;5.562;2022-12-07T08:55:18;101721.50;;;1.61;100.00
59513;BME280;45330;51.634;5.562;2022-12-07T08:57:44;101714.38;;;1.53;100.00
59513;BME280;45330;51.634;5.562;2022-12-07T09:00:10;101725.38;;;1.70;100.00
59513;BME280;45330;51.634;5.562;2022-12-07T09:02:35;101724.81;;;1.78;100.00
59513;BME280;45330;51.634;5.562;2022-12-07T09:05:01;101699.50;;;1.66;100.00
59513;BME280;45330;51.634;5.562;2022-12-07T09:07:27;101728.69;;;1.87;100.00
59513;BME280;45330;51.634;5.562;2022-12-07T09:09:52;101710.53;;;1.83;100.00
59513;BME280;45330;51.634;5.562;2022-12-07T09:12:17;101733.69;;;2.04;100.00
59513;BME280;45330;51.634;5.562;2022-12-07T09:14:43;101699.91;;;1.95;100.00
59513;BME280;45330;51.634;5.562;2022-12-07T09:17:10;101722.63;;;2.06;100.00
59513;BME280;45330;51.634;5.562;2022-12-07T09:19:37;101725.13;;;2.05;100.00
59513;BME280;45330;51.634;5.562;2022-12-07T09:22:03;101723.41;;;2.04;100.00
59513;BME280;45330;51.634;5.562;2022-12-07T09:24:30;101725.06;;;2.03;100.00
59513;BME280;45330;51.634;5.562;2022-12-07T09:26:55;101731.91;;;2.03;100.00
59513;BME280;45330;51.634;5.562;2022-12-07T09:29:20;101698.69;;;1.86;100.00
59513;BME280;45330;51.634;5.562;2022-12-07T09:31:46;101731.16;;;2.05;100.00
59513;BME280;45330;51.634;5.562;2022-12-07T09:34:11;101734.91;;;2.14;100.00
59513;BME280;45330;51.634;5.562;2022-12-07T09:36:37;101737.94;;;2.25;100.00
59513;BME280;45330;51.634;5.562;2022-12-07T09:39:03;101729.63;;;2.30;100.00
59513;BME280;45330;51.634;5.562;2022-12-07T09:41:30;101706.09;;;2.19;100.00
59513;BME280;45330;51.634;5.562;2022-12-07T09:44:03;101732.53;;;2.38;100.00
59513;BME280;45330;51.634;5.562;2022-12-07T09:46:34;101702.81;;;2.23;100.00
59513;BME280;45330;51.634;5.562;2022-12-07T09:49:00;101708.91;;;2.26;100.00
59513;BME280;45330;51.634;5.562;2022-12-07T09:51:26;101734.47;;;2.44;100.00
59513;BME280;45330;51.634;5.562;2022-12-07T09:53:53;101711.16;;;2.39;100.00
59513;BME280;45330;51.634;5.562;2022-12-07T09:56:20;101708.56;;;2.60;100.00
59513;BME280;45330;51.634;5.562;2022-12-07T09:58:46;101720.63;;;3.05;100.00
59513;BME280;45330;51.634;5.562;2022-12-07T10:01:16;101719.81;;;3.29;100.00
59513;BME280;45330;51.634;5.562;2022-12-07T10:04:12;101718.47;;;3.38;100.00
59513;BME280;45330;51.634;5.562;2022-12-07T10:06:39;101701.53;;;3.21;100.00
59513;BME280;45330;51.634;5.562;2022-12-07T10:09:15;101689.25;;;3.36;100.00
59513;BME280;45330;51.634;5.562;2022-12-07T10:14:29;101720.56;;;3.49;100.00
59513;BME280;45330;51.634;5.562;2022-12-07T10:16:55;101685.72;;;3.34;100.00
59513;BME280;45330;51.634;5.562;2022-12-07T10:19:27;101692.19;;;3.47;100.00
59513;BME280;45330;51.634;5.562;2022-12-07T10:22:11;101680.19;;;3.46;100.00
59513;BME280;45330;51.634;5.562;2022-12-07T10:24:38;101699.22;;;3.75;100.00
59513;BME280;45330;51.634;5.562;2022-12-07T10:27:26;101689.44;;;3.91;100.00
59513;BME280;45330;51.634;5.562;2022-12-07T10:29:54;101665.84;;;4.03;100.00
59513;BME280;45330;51.634;5.562;2022-12-07T10:34:45;101663.03;;;4.48;100.00
59513;BME280;45330;51.634;5.562;2022-12-07T10:39:49;101678.81;;;4.86;100.00
59513;BME280;45330;51.634;5.562;2022-12-07T10:42:25;101668.38;;;4.81;100.00
59513;BME280;45330;51.634;5.562;2022-12-07T10:45:14;101652.88;;;4.80;100.00
59513;BME280;45330;51.634;5.562;2022-12-07T10:48:05;101672.13;;;4.91;100.00
59513;BME280;45330;51.634;5.562;2022-12-07T10:53:23;101670.34;;;4.90;100.00
59513;BME280;45330;51.634;5.562;2022-12-07T10:59:04;101662.66;;;4.92;100.00
59513;BME280;45330;51.634;5.562;2022-12-07T11:04:43;101661.53;;;5.11;100.00
59513;BME280;45330;51.634;5.562;2022-12-07T11:08:12;101637.38;;;5.09;100.00
59513;BME280;45330;51.634;5.562;2022-12-07T11:10:24;101625.22;;;5.05;100.00
59513;BME280;45330;51.634;5.562;2022-12-07T11:18:31;101645.00;;;5.35;100.00
59513;BME280;45330;51.634;5.562;2022-12-07T11:21:08;101646.97;;;5.43;100.00
59513;BME280;45330;51.634;5.562;2022-12-07T11:27:04;101601.09;;;5.33;100.00
59513;BME280;45330;51.634;5.562;2022-12-07T11:30:23;101625.50;;;5.44;100.00
59513;BME280;45330;51.634;5.562;2022-12-07T11:37:54;101596.47;;;5.23;100.00
59513;BME280;45330;51.634;5.562;2022-12-07T11:40:31;101612.94;;;5.26;100.00
59513;BME280;45330;51.634;5.562;2022-12-07T11:43:24;101615.13;;;5.12;100.00
59513;BME280;45330;51.634;5.562;2022-12-07T11:46:04;101591.22;;;4.89;100.00
59513;BME280;45330;51.634;5.562;2022-12-07T11:48:38;101576.91;;;4.69;100.00
59513;BME280;45330;51.634;5.562;2022-12-07T11:51:07;101572.19;;;4.55;100.00
59513;BME280;45330;51.634;5.562;2022-12-07T11:53:40;101598.16;;;4.61;100.00
59513;BME280;45330;51.634;5.562;2022-12-07T11:56:12;101602.34;;;4.58;100.00
59513;BME280;45330;51.634;5.562;2022-12-07T12:04:05;101600.16;;;5.01;100.00
59513;BME280;45330;51.634;5.562;2022-12-07T12:06:32;101571.16;;;5.08;100.00
59513;BME280;45330;51.634;5.562;2022-12-07T12:09:31;101599.88;;;5.52;100.00
59513;BME280;45330;51.634;5.562;2022-12-07T12:12:21;101592.84;;;5.80;100.00
59513;BME280;45330;51.634;5.562;2022-12-07T12:17:37;101589.31;;;6.10;100.00
59513;BME280;45330;51.634;5.562;2022-12-07T12:22:49;101580.66;;;6.08;100.00
59513;BME280;45330;51.634;5.562;2022-12-07T12:25:26;101570.00;;;5.95;100.00
59513;BME280;45330;51.634;5.562;2022-12-07T12:27:55;101578.34;;;5.85;100.00
59513;BME280;45330;51.634;5.562;2022-12-07T12:30:38;101596.69;;;5.62;100.00
59513;BME280;45330;51.634;5.562;2022-12-07T12:33:13;101573.63;;;5.05;100.00
59513;BME280;45330;51.634;5.562;2022-12-07T12:35:40;101593.97;;;4.94;100.00
59513;BME280;45330;51.634;5.562;2022-12-07T12:38:30;101585.03;;;4.83;100.00
59513;BME280;45330;51.634;5.562;2022-12-07T12:41:00;101548.09;;;4.53;100.00
59513;BME280;45330;51.634;5.562;2022-12-07T12:43:47;101548.22;;;4.58;100.00
59513;BME280;45330;51.634;5.562;2022-12-07T12:54:29;101569.13;;;4.67;100.00
59513;BME280;45330;51.634;5.562;2022-12-07T12:59:33;101565.00;;;4.45;100.00
59513;BME280;45330;51.634;5.562;2022-12-07T13:05:16;101524.44;;;4.10;100.00
59513;BME280;45330;51.634;5.562;2022-12-07T13:10:32;101522.78;;;3.85;100.00
59513;BME280;45330;51.634;5.562;2022-12-07T13:20:47;101536.00;;;3.96;100.00
59513;BME280;45330;51.634;5.562;2022-12-07T13:23:17;101512.00;;;3.97;100.00
59513;BME280;45330;51.634;5.562;2022-12-07T13:28:43;101496.16;;;3.85;100.00
59513;BME280;45330;51.634;5.562;2022-12-07T13:33:37;101511.66;;;3.86;100.00
59513;BME280;45330;51.634;5.562;2022-12-07T13:36:02;101509.84;;;3.84;100.00
59513;BME280;45330;51.634;5.562;2022-12-07T13:38:31;101517.69;;;3.87;100.00
59513;BME280;45330;51.634;5.562;2022-12-07T13:41:17;101492.50;;;3.78;100.00
59513;BME280;45330;51.634;5.562;2022-12-07T13:46:47;101500.78;;;3.95;100.00
59513;BME280;45330;51.634;5.562;2022-12-07T13:49:19;101489.19;;;4.08;100.00
59513;BME280;45330;51.634;5.562;2022-12-07T13:51:45;101489.41;;;4.16;100.00
59513;BME280;45330;51.634;5.562;2022-12-07T13:54:12;101470.47;;;4.14;100.00
59513;BME280;45330;51.634;5.562;2022-12-07T13:56:38;101466.63;;;4.29;100.00
59513;BME280;45330;51.634;5.562;2022-12-07T13:59:17;101482.91;;;4.57;100.00
59513;BME280;45330;51.634;5.562;2022-12-07T14:01:45;101442.25;;;4.49;100.00
59513;BME280;45330;51.634;5.562;2022-12-07T14:04:18;101490.69;;;4.91;100.00
59513;BME280;45330;51.634;5.562;2022-12-07T14:06:51;101482.34;;;5.00;100.00
59513;BME280;45330;51.634;5.562;2022-12-07T14:09:20;101457.09;;;4.88;100.00
59513;BME280;45330;51.634;5.562;2022-12-07T14:11:48;101458.81;;;4.87;100.00
59513;BME280;45330;51.634;5.562;2022-12-07T14:14:18;101478.88;;;4.99;100.00
59513;BME280;45330;51.634;5.562;2022-12-07T14:16:54;101461.44;;;4.89;100.00
59513;BME280;45330;51.634;5.562;2022-12-07T14:19:52;101481.00;;;4.82;100.00
59513;BME280;45330;51.634;5.562;2022-12-07T14:22:30;101482.31;;;4.68;100.00
59513;BME280;45330;51.634;5.562;2022-12-07T14:25:16;101477.75;;;4.57;100.00
59513;BME280;45330;51.634;5.562;2022-12-07T14:30:24;101501.31;;;4.41;100.00
59513;BME280;45330;51.634;5.562;2022-12-07T14:32:53;101495.09;;;4.05;100.00
59513;BME280;45330;51.634;5.562;2022-12-07T14:35:19;101458.50;;;3.34;100.00
59513;BME280;45330;51.634;5.562;2022-12-07T14:37:48;101477.19;;;3.04;100.00
59513;BME280;45330;51.634;5.562;2022-12-07T14:40:16;101477.84;;;2.74;100.00
59513;BME280;45330;51.634;5.562;2022-12-07T14:42:42;101479.75;;;2.55;100.00
59513;BME280;45330;51.634;5.562;2022-12-07T14:45:14;101497.19;;;2.64;100.00